createdAt,value
2023-02-11T00:01:00.323Z,-5.03
2023-02-11T00:03:26.936Z,-5.02
2023-02-11T00:05:58.208Z,-5.01
2023-02-11T00:08:25.067Z,-5.00
2023-02-11T00:10:53.606Z,-5.02
2023-02-11T00:13:20.090Z,-5.04
2023-02-11T00:15:46.765Z,-5.07
2023-02-11T00:18:13.555Z,-5.11
2023-02-11T00:20:41.161Z,-5.15
2023-02-11T00:23:07.882Z,-5.18
2023-02-11T00:25:35.134Z,-5.25
2023-02-11T00:28:01.717Z,-5.34
2023-02-11T00:30:28.333Z,-5.39
2023-02-11T00:32:54.942Z,-5.44
2023-02-11T00:35:21.429Z,-5.52
2023-02-11T00:37:47.961Z,-5.64
2023-02-11T00:40:15.365Z,-5.78
2023-02-11T00:42:42.817Z,-5.85
2023-02-11T00:45:09.607Z,-5.91
2023-02-11T00:47:36.916Z,-5.93
2023-02-11T00:50:05.577Z,-5.97
2023-02-11T00:52:33.104Z,-6.02
2023-02-11T00:54:59.800Z,-6.00
2023-02-11T00:57:26.321Z,-6.00
2023-02-11T00:59:52.787Z,-6.01
2023-02-11T01:02:19.360Z,-5.95
2023-02-11T01:04:45.976Z,-5.92
2023-02-11T01:07:12.486Z,-5.93
2023-02-11T01:09:39.055Z,-5.94
2023-02-11T01:12:05.791Z,-5.96
2023-02-11T01:14:32.735Z,-6.02
2023-02-11T01:17:01.466Z,-6.09
2023-02-11T01:19:28.090Z,-6.15
2023-02-11T01:21:54.617Z,-6.19
2023-02-11T01:24:21.088Z,-6.24
2023-02-11T01:26:47.545Z,-6.30
2023-02-11T01:29:14.133Z,-6.35
2023-02-11T01:31:40.773Z,-6.39
2023-02-11T01:34:09.814Z,-6.38
2023-02-11T01:36:36.436Z,-6.36
2023-02-11T01:39:03.540Z,-6.37
2023-02-11T01:41:30.429Z,-6.36
2023-02-11T01:43:57.076Z,-6.37
2023-02-11T01:46:35.982Z,-6.39
2023-02-11T01:49:18.403Z,-6.40
2023-02-11T01:51:54.388Z,-6.41
2023-02-11T01:54:24.979Z,-6.43
2023-02-11T01:56:54.710Z,-6.47
2023-02-11T01:59:27.840Z,-6.51
2023-02-11T02:02:00.772Z,-6.54
2023-02-11T02:04:30.686Z,-6.57
2023-02-11T02:07:05.344Z,-6.59
2023-02-11T02:09:39.701Z,-6.62
2023-02-11T02:12:06.451Z,-6.65
2023-02-11T02:14:33.270Z,-6.71
2023-02-11T02:16:59.751Z,-6.77
2023-02-11T02:19:46.124Z,-6.82
2023-02-11T02:22:54.780Z,-6.87
2023-02-11T02:25:43.314Z,-6.96
2023-02-11T02:28:37.254Z,-7.06
2023-02-11T02:31:19.163Z,-7.13
2023-02-11T02:33:50.119Z,-7.13
2023-02-11T02:36:30.524Z,-7.14
2023-02-11T02:39:10.533Z,-7.16
2023-02-11T02:41:39.052Z,-7.19
2023-02-11T02:44:08.219Z,-7.21
2023-02-11T02:46:37.130Z,-7.27
2023-02-11T02:49:06.659Z,-7.33
2023-02-11T02:51:39.188Z,-7.37
2023-02-11T02:54:31.713Z,-7.38
2023-02-11T02:57:31.294Z,-7.30
2023-02-11T03:00:18.086Z,-7.27
2023-02-11T03:02:51.590Z,-7.24
2023-02-11T03:05:42.624Z,-7.22
2023-02-11T03:08:28.189Z,-7.21
2023-02-11T03:10:56.589Z,-7.26
2023-02-11T03:13:28.966Z,-7.32
2023-02-11T03:15:59.064Z,-7.39
2023-02-11T03:18:28.809Z,-7.44
2023-02-11T03:20:57.096Z,-7.50
2023-02-11T03:23:29.273Z,-7.53
2023-02-11T03:26:02.977Z,-7.58
2023-02-11T03:28:35.649Z,-7.59
2023-02-11T03:31:34.076Z,-7.59
2023-02-11T03:34:10.123Z,-7.60
2023-02-11T03:36:41.171Z,-7.61
2023-02-11T03:39:10.031Z,-7.59
2023-02-11T03:41:38.435Z,-7.55
2023-02-11T03:44:07.284Z,-7.49
2023-02-11T03:46:38.420Z,-7.43
2023-02-11T03:49:12.447Z,-7.36
2023-02-11T03:51:40.588Z,-7.29
2023-02-11T03:54:14.746Z,-7.24
2023-02-11T03:56:51.799Z,-7.20
2023-02-11T03:59:18.459Z,-7.16
2023-02-11T04:01:45.080Z,-7.11
2023-02-11T04:04:11.939Z,-7.07
2023-02-11T04:06:38.909Z,-7.05
2023-02-11T04:09:05.409Z,-6.98
2023-02-11T04:11:31.891Z,-6.95
2023-02-11T04:13:58.504Z,-6.90
2023-02-11T04:16:25.215Z,-6.86
2023-02-11T04:18:52.059Z,-6.82
2023-02-11T04:21:18.755Z,-6.77
2023-02-11T04:23:45.298Z,-6.72
2023-02-11T04:26:12.023Z,-6.73
2023-02-11T04:28:38.580Z,-6.79
2023-02-11T04:31:05.690Z,-6.83
2023-02-11T04:33:32.361Z,-6.88
2023-02-11T04:35:59.115Z,-6.88
2023-02-11T04:38:25.568Z,-6.87
2023-02-11T04:40:52.227Z,-6.85
2023-02-11T04:43:18.744Z,-6.78
2023-02-11T04:45:45.613Z,-6.69
2023-02-11T04:48:12.447Z,-6.67
2023-02-11T04:50:38.893Z,-6.62
2023-02-11T04:53:05.585Z,-6.61
2023-02-11T04:55:32.181Z,-6.59
2023-02-11T04:57:58.920Z,-6.58
2023-02-11T05:00:25.508Z,-6.56
2023-02-11T05:02:52.029Z,-6.53
2023-02-11T05:05:18.762Z,-6.49
2023-02-11T05:07:45.289Z,-6.47
2023-02-11T05:10:11.900Z,-6.43
2023-02-11T05:12:38.336Z,-6.40
2023-02-11T05:15:05.758Z,-6.38
2023-02-11T05:17:32.316Z,-6.35
2023-02-11T05:19:58.908Z,-6.33
2023-02-11T05:22:25.392Z,-6.30
2023-02-11T05:24:51.915Z,-6.27
2023-02-11T05:27:18.402Z,-6.26
2023-02-11T05:29:44.855Z,-6.24
2023-02-11T05:32:11.349Z,-6.23
2023-02-11T05:34:38.266Z,-6.20
2023-02-11T05:37:04.717Z,-6.17
2023-02-11T05:39:31.537Z,-6.14
2023-02-11T05:41:57.977Z,-6.12
2023-02-11T05:44:24.867Z,-6.11
2023-02-11T05:46:51.396Z,-6.09
2023-02-11T05:49:18.336Z,-6.09
2023-02-11T05:51:44.901Z,-6.05
2023-02-11T05:54:12.017Z,-6.01
2023-02-11T05:56:38.622Z,-5.96
2023-02-11T05:59:05.457Z,-5.91
2023-02-11T06:01:32.129Z,-5.84
2023-02-11T06:03:58.742Z,-5.76
2023-02-11T06:06:25.767Z,-5.66
2023-02-11T06:08:52.249Z,-5.58
2023-02-11T06:11:19.052Z,-5.49
2023-02-11T06:13:45.594Z,-5.40
2023-02-11T06:16:12.227Z,-5.30
2023-02-11T06:18:39.021Z,-5.18
2023-02-11T06:21:10.967Z,-5.10
2023-02-11T06:23:38.014Z,-5.03
2023-02-11T06:26:06.711Z,-4.96
2023-02-11T06:28:34.014Z,-4.88
2023-02-11T06:31:06.170Z,-4.78
2023-02-11T06:33:33.804Z,-4.67
2023-02-11T06:36:00.876Z,-4.56
2023-02-11T06:38:27.698Z,-4.46
2023-02-11T06:40:54.268Z,-4.38
2023-02-11T06:43:20.809Z,-4.29
2023-02-11T06:45:53.895Z,-4.21
2023-02-11T06:48:21.265Z,-4.15
2023-02-11T06:50:47.995Z,-4.08
2023-02-11T06:53:14.628Z,-4.00
2023-02-11T06:55:41.093Z,-3.88
2023-02-11T06:58:07.630Z,-3.78
2023-02-11T07:00:34.200Z,-3.68
2023-02-11T07:03:00.673Z,-3.62
2023-02-11T07:05:27.356Z,-3.58
2023-02-11T07:07:54.106Z,-3.54
2023-02-11T07:10:20.724Z,-3.45
2023-02-11T07:12:47.268Z,-3.37
2023-02-11T07:15:13.858Z,-3.29
2023-02-11T07:17:40.314Z,-3.20
2023-02-11T07:20:07.120Z,-3.09
2023-02-11T07:22:34.657Z,-2.97
2023-02-11T07:25:01.335Z,-2.87
2023-02-11T07:27:27.807Z,-2.82
2023-02-11T07:29:54.439Z,-2.70
2023-02-11T07:32:21.030Z,-2.56
2023-02-11T07:34:47.902Z,-2.42
2023-02-11T07:37:14.606Z,-2.30
2023-02-11T07:39:41.040Z,-2.11
2023-02-11T07:42:07.597Z,-1.89
2023-02-11T07:44:34.350Z,-1.72
2023-02-11T07:47:01.261Z,-1.50
2023-02-11T07:49:28.140Z,-1.17
2023-02-11T07:51:54.885Z,-0.88
2023-02-11T07:54:21.447Z,-0.59
2023-02-11T07:56:48.128Z,-0.27
2023-02-11T07:59:14.716Z,-0.06
2023-02-11T08:01:41.246Z,0.14
2023-02-11T08:04:07.799Z,0.22
2023-02-11T08:06:39.815Z,0.31
2023-02-11T08:09:08.555Z,0.42
2023-02-11T08:11:35.722Z,0.48
2023-02-11T08:14:02.265Z,0.62
2023-02-11T08:16:31.968Z,0.83
2023-02-11T08:19:01.533Z,1.01
2023-02-11T08:21:29.161Z,1.11
2023-02-11T08:23:56.492Z,1.19
2023-02-11T08:26:26.495Z,1.22
2023-02-11T08:28:55.112Z,1.24
2023-02-11T08:31:25.000Z,1.27
2023-02-11T08:33:52.732Z,1.36
2023-02-11T08:36:22.454Z,1.44
2023-02-11T08:38:49.890Z,1.54
2023-02-11T08:41:17.962Z,1.65
2023-02-11T08:43:45.429Z,1.81
2023-02-11T08:46:15.611Z,2.03
2023-02-11T08:48:43.141Z,2.18
2023-02-11T08:51:29.931Z,2.30
2023-02-11T08:53:57.276Z,2.39
2023-02-11T08:56:24.313Z,2.46
2023-02-11T08:58:51.184Z,2.53
2023-02-11T09:01:22.825Z,2.68
2023-02-11T09:03:50.406Z,2.92
2023-02-11T09:06:17.267Z,3.18
2023-02-11T09:08:46.492Z,3.48
2023-02-11T09:11:13.722Z,3.77
2023-02-11T09:13:41.660Z,4.01
2023-02-11T09:16:08.842Z,4.12
2023-02-11T09:18:35.590Z,4.19
2023-02-11T09:21:04.471Z,4.31
2023-02-11T09:23:31.117Z,4.36
2023-02-11T09:25:57.512Z,4.42
2023-02-11T09:28:24.048Z,4.46
2023-02-11T09:30:51.136Z,4.43
2023-02-11T09:33:17.909Z,4.52
2023-02-11T09:35:44.554Z,4.53
2023-02-11T09:38:10.977Z,4.65
2023-02-11T09:40:43.243Z,4.75
2023-02-11T09:43:20.289Z,4.91
2023-02-11T09:45:47.823Z,5.08
2023-02-11T09:48:20.807Z,5.05
2023-02-11T09:50:52.449Z,4.96
2023-02-11T09:53:26.504Z,4.93
2023-02-11T09:55:59.763Z,4.93
2023-02-11T09:58:35.528Z,4.95
2023-02-11T10:01:02.006Z,4.87
2023-02-11T10:03:43.698Z,4.98
2023-02-11T10:06:32.252Z,5.40
2023-02-11T10:09:25.108Z,5.90
2023-02-11T10:12:25.825Z,6.40
2023-02-11T10:14:55.147Z,7.07
2023-02-11T10:17:28.624Z,7.13
2023-02-11T10:20:04.001Z,7.12
2023-02-11T10:22:47.410Z,7.06
2023-02-11T10:25:27.997Z,7.05
2023-02-11T10:27:58.064Z,7.34
2023-02-11T10:30:52.801Z,7.50
2023-02-11T10:33:36.921Z,7.49
2023-02-11T10:36:04.689Z,7.43
2023-02-11T10:38:31.523Z,7.29
2023-02-11T10:40:57.958Z,7.04
2023-02-11T10:43:28.155Z,6.87
2023-02-11T10:45:56.796Z,6.68
2023-02-11T10:48:47.629Z,6.49
2023-02-11T10:51:21.598Z,6.49
2023-02-11T10:54:04.847Z,6.52
2023-02-11T10:56:34.739Z,6.39
2023-02-11T10:59:21.670Z,6.20
2023-02-11T11:01:56.234Z,6.00
2023-02-11T11:04:45.421Z,5.92
2023-02-11T11:07:25.150Z,5.82
2023-02-11T11:10:04.990Z,5.85
2023-02-11T11:12:45.141Z,5.85
2023-02-11T11:15:11.757Z,6.03
2023-02-11T11:17:38.417Z,6.25
2023-02-11T11:20:25.444Z,6.44
2023-02-11T11:23:07.627Z,6.55
2023-02-11T11:25:38.484Z,6.61
2023-02-11T11:28:05.273Z,6.65
2023-02-11T11:30:39.393Z,6.68
2023-02-11T11:33:34.300Z,6.67
2023-02-11T11:36:06.425Z,6.58
2023-02-11T11:38:35.071Z,6.53
2023-02-11T11:41:16.959Z,6.56
2023-02-11T11:43:57.019Z,6.63
2023-02-11T11:46:28.087Z,6.74
2023-02-11T11:49:04.107Z,6.74
2023-02-11T11:51:32.898Z,6.77
2023-02-11T11:54:15.689Z,6.91
2023-02-11T11:56:53.804Z,6.98
2023-02-11T11:59:22.529Z,7.00
2023-02-11T12:02:12.256Z,7.09
2023-02-11T12:04:47.950Z,7.16
2023-02-11T12:07:14.362Z,7.03
2023-02-11T12:09:43.639Z,6.87
2023-02-11T12:12:13.051Z,6.80
2023-02-11T12:15:07.156Z,6.90
2023-02-11T12:17:43.167Z,7.17
2023-02-11T12:20:31.563Z,7.41
2023-02-11T12:23:34.569Z,7.76
2023-02-11T12:26:11.245Z,8.12
2023-02-11T12:28:46.708Z,8.31
2023-02-11T12:31:37.450Z,8.35
2023-02-11T12:34:41.820Z,8.23
2023-02-11T12:37:47.023Z,7.94
2023-02-11T12:40:23.078Z,7.80
2023-02-11T12:43:13.211Z,7.81
2023-02-11T12:46:07.607Z,7.94
2023-02-11T12:48:59.314Z,7.95
2023-02-11T12:51:50.178Z,7.84
2023-02-11T12:54:22.460Z,7.67
2023-02-11T12:57:15.132Z,7.64
2023-02-11T13:00:05.732Z,7.45
2023-02-11T13:03:07.222Z,7.07
2023-02-11T13:05:54.164Z,6.74
2023-02-11T13:08:41.236Z,6.54
2023-02-11T13:11:21.952Z,6.33
2023-02-11T13:14:12.101Z,6.15
2023-02-11T13:16:47.559Z,6.00
2023-02-11T13:19:52.921Z,5.89
2023-02-11T13:22:31.736Z,5.77
2023-02-11T13:25:02.388Z,5.74
2023-02-11T13:28:05.752Z,5.71
2023-02-11T13:30:35.332Z,5.66
2023-02-11T13:33:04.224Z,5.64
2023-02-11T13:35:31.047Z,5.63
2023-02-11T13:38:00.182Z,5.61
2023-02-11T13:40:36.800Z,5.56
2023-02-11T13:43:06.760Z,5.54
2023-02-11T13:45:50.154Z,5.51
2023-02-11T13:48:25.419Z,5.44
2023-02-11T13:50:56.270Z,5.39
2023-02-11T13:53:24.027Z,5.30
2023-02-11T13:55:53.156Z,5.19
2023-02-11T13:58:28.826Z,5.11
2023-02-11T14:00:55.983Z,5.04
2023-02-11T14:03:31.866Z,4.99
2023-02-11T14:06:10.746Z,4.93
2023-02-11T14:08:39.057Z,4.89
2023-02-11T14:11:30.921Z,4.86
2023-02-11T14:14:19.328Z,4.81
2023-02-11T14:17:07.984Z,4.76
2023-02-11T14:19:40.526Z,4.67
2023-02-11T14:22:33.622Z,4.63
2023-02-11T14:25:05.454Z,4.58
2023-02-11T14:27:43.846Z,4.52
2023-02-11T14:30:33.416Z,4.47
2023-02-11T14:33:18.662Z,4.46
2023-02-11T14:35:56.688Z,4.48
2023-02-11T14:38:29.318Z,4.43
2023-02-11T14:41:06.603Z,4.37
2023-02-11T14:43:44.131Z,4.31
2023-02-11T14:46:11.059Z,4.21
2023-02-11T14:48:40.147Z,4.14
2023-02-11T14:51:20.075Z,4.08
2023-02-11T14:53:50.074Z,4.02
2023-02-11T14:56:36.549Z,3.98
2023-02-11T14:59:03.004Z,3.93
2023-02-11T15:01:41.298Z,3.88
2023-02-11T15:04:27.016Z,3.83
2023-02-11T15:06:54.789Z,3.78
2023-02-11T15:09:43.243Z,3.74
2023-02-11T15:12:28.706Z,3.70
2023-02-11T15:14:59.251Z,3.67
2023-02-11T15:17:29.032Z,3.64
2023-02-11T15:19:59.582Z,3.62
2023-02-11T15:22:29.987Z,3.61
2023-02-11T15:25:16.988Z,3.59
2023-02-11T15:27:47.084Z,3.56
2023-02-11T15:30:22.958Z,3.55
2023-02-11T15:33:03.587Z,3.54
2023-02-11T15:35:37.164Z,3.54
2023-02-11T15:38:04.764Z,3.54
2023-02-11T15:40:35.307Z,3.53
2023-02-11T15:43:05.277Z,3.53
2023-02-11T15:45:38.359Z,3.50
2023-02-11T15:48:10.151Z,3.47
2023-02-11T15:50:39.217Z,3.44
2023-02-11T15:53:22.547Z,3.42
2023-02-11T15:55:51.877Z,3.39
2023-02-11T15:58:19.007Z,3.37
2023-02-11T16:00:52.554Z,3.34
2023-02-11T16:03:25.688Z,3.32
2023-02-11T16:05:52.545Z,3.30
2023-02-11T16:08:26.459Z,3.28
2023-02-11T16:11:04.576Z,3.25
2023-02-11T16:13:32.138Z,3.23
2023-02-11T16:16:02.691Z,3.22
2023-02-11T16:18:38.674Z,3.21
2023-02-11T16:21:12.779Z,3.20
2023-02-11T16:23:41.756Z,3.19
2023-02-11T16:26:22.725Z,3.16
2023-02-11T16:28:49.667Z,3.16
2023-02-11T16:31:17.068Z,3.17
2023-02-11T16:33:43.585Z,3.14
2023-02-11T16:36:15.304Z,3.12
2023-02-11T16:38:41.784Z,3.10
2023-02-11T16:41:08.924Z,3.09
2023-02-11T16:43:35.469Z,3.05
2023-02-11T16:46:01.878Z,3.02
2023-02-11T16:48:28.542Z,2.97
2023-02-11T16:50:55.658Z,2.93
2023-02-11T16:53:24.369Z,2.90
2023-02-11T16:55:52.770Z,2.87
2023-02-11T16:58:20.132Z,2.80
2023-02-11T17:00:48.275Z,2.72
2023-02-11T17:03:22.958Z,2.66
2023-02-11T17:05:55.649Z,2.60
2023-02-11T17:08:22.989Z,2.55
2023-02-11T17:10:50.079Z,2.53
2023-02-11T17:13:16.776Z,2.52
2023-02-11T17:15:43.173Z,2.53
2023-02-11T17:18:13.577Z,2.55
2023-02-11T17:20:41.066Z,2.57
2023-02-11T17:23:07.712Z,2.63
2023-02-11T17:25:34.404Z,2.68
2023-02-11T17:28:01.198Z,2.69
2023-02-11T17:30:27.771Z,2.69
2023-02-11T17:32:54.537Z,2.71
2023-02-11T17:35:21.387Z,2.70
2023-02-11T17:37:48.227Z,2.70
2023-02-11T17:40:14.886Z,2.70
2023-02-11T17:42:41.415Z,2.72
2023-02-11T17:45:08.886Z,2.69
2023-02-11T17:47:35.743Z,2.64
2023-02-11T17:50:03.803Z,2.57
2023-02-11T17:52:30.826Z,2.52
2023-02-11T17:54:57.396Z,2.46
2023-02-11T17:57:24.139Z,2.41
2023-02-11T17:59:50.882Z,2.38
2023-02-11T18:02:18.201Z,2.36
2023-02-11T18:04:44.673Z,2.32
2023-02-11T18:07:11.481Z,2.30
2023-02-11T18:09:40.247Z,2.29
2023-02-11T18:12:08.216Z,2.31
2023-02-11T18:14:34.725Z,2.30
2023-02-11T18:17:01.604Z,2.33
2023-02-11T18:19:28.843Z,2.33
2023-02-11T18:21:55.257Z,2.33
2023-02-11T18:24:22.150Z,2.32
2023-02-11T18:26:48.668Z,2.32
2023-02-11T18:29:15.619Z,2.30
2023-02-11T18:31:42.171Z,2.31
2023-02-11T18:34:09.204Z,2.30
2023-02-11T18:36:36.791Z,2.32
2023-02-11T18:39:04.892Z,2.32
2023-02-11T18:41:31.637Z,2.32
2023-02-11T18:43:58.766Z,2.33
2023-02-11T18:46:25.819Z,2.33
2023-02-11T18:48:54.410Z,2.34
2023-02-11T18:51:22.415Z,2.33
2023-02-11T18:53:49.232Z,2.32
2023-02-11T18:56:19.012Z,2.32
2023-02-11T18:58:45.491Z,2.34
2023-02-11T19:01:17.835Z,2.33
2023-02-11T19:03:45.747Z,2.34
2023-02-11T19:06:21.913Z,2.34
2023-02-11T19:08:48.449Z,2.34
2023-02-11T19:11:14.942Z,2.36
2023-02-11T19:13:41.526Z,2.36
2023-02-11T19:16:11.368Z,2.36
2023-02-11T19:18:38.197Z,2.35
2023-02-11T19:21:10.215Z,2.37
2023-02-11T19:23:36.779Z,2.36
2023-02-11T19:26:03.808Z,2.34
2023-02-11T19:28:31.862Z,2.33
2023-02-11T19:30:58.904Z,2.31
2023-02-11T19:33:25.841Z,2.29
2023-02-11T19:35:52.804Z,2.26
2023-02-11T19:38:19.448Z,2.24
2023-02-11T19:40:46.065Z,2.22
2023-02-11T19:43:13.139Z,2.21
2023-02-11T19:45:39.675Z,2.19
2023-02-11T19:48:06.747Z,2.17
2023-02-11T19:50:35.239Z,2.16
2023-02-11T19:53:02.471Z,2.15
2023-02-11T19:55:29.312Z,2.13
2023-02-11T19:57:56.166Z,2.12
2023-02-11T20:00:22.707Z,2.11
2023-02-11T20:02:49.384Z,2.12
2023-02-11T20:05:16.296Z,2.12
2023-02-11T20:07:43.258Z,2.13
2023-02-11T20:10:10.422Z,2.14
2023-02-11T20:12:37.153Z,2.14
2023-02-11T20:15:04.416Z,2.16
2023-02-11T20:17:31.358Z,2.16
2023-02-11T20:19:58.260Z,2.20
2023-02-11T20:22:25.057Z,2.29
2023-02-11T20:24:51.510Z,2.38
2023-02-11T20:27:20.033Z,2.53
2023-02-11T20:29:46.929Z,2.64
2023-02-11T20:32:14.550Z,2.70
2023-02-11T20:34:41.352Z,2.73
2023-02-11T20:37:07.883Z,2.77
2023-02-11T20:39:34.384Z,2.81
2023-02-11T20:42:01.212Z,2.91
2023-02-11T20:44:27.918Z,2.99
2023-02-11T20:46:54.714Z,3.00
2023-02-11T20:49:24.302Z,3.02
2023-02-11T20:51:51.243Z,3.07
2023-02-11T20:54:19.950Z,3.08
2023-02-11T20:56:49.219Z,3.07
2023-02-11T20:59:16.510Z,3.07
2023-02-11T21:01:46.611Z,3.08
2023-02-11T21:04:17.027Z,3.09
2023-02-11T21:06:45.942Z,3.11
2023-02-11T21:09:15.331Z,3.12
2023-02-11T21:11:42.899Z,3.13
2023-02-11T21:14:11.384Z,3.15
2023-02-11T21:16:39.061Z,3.17
2023-02-11T21:19:06.617Z,3.19
2023-02-11T21:21:36.134Z,3.20
2023-02-11T21:24:02.745Z,3.19
2023-02-11T21:26:29.322Z,3.21
2023-02-11T21:28:56.080Z,3.24
2023-02-11T21:31:31.599Z,3.24
2023-02-11T21:33:58.782Z,3.22
2023-02-11T21:36:27.053Z,3.19
2023-02-11T21:38:53.857Z,3.20
2023-02-11T21:41:21.987Z,3.22
2023-02-11T21:43:49.165Z,3.23
2023-02-11T21:46:16.991Z,3.29
2023-02-11T21:48:43.520Z,3.29
2023-02-11T21:51:14.501Z,3.27
2023-02-11T21:53:41.480Z,3.32
2023-02-11T21:56:18.564Z,3.32
2023-02-11T21:58:46.148Z,3.29
2023-02-11T22:01:18.391Z,3.29
2023-02-11T22:03:45.927Z,3.30
2023-02-11T22:06:19.041Z,3.33
2023-02-11T22:08:45.463Z,3.35
2023-02-11T22:11:13.113Z,3.35
2023-02-11T22:13:41.015Z,3.36
2023-02-11T22:16:14.188Z,3.36
2023-02-11T22:18:41.697Z,3.36
2023-02-11T22:21:11.177Z,3.36
2023-02-11T22:23:39.354Z,3.38
2023-02-11T22:26:08.770Z,3.38
2023-02-11T22:28:35.591Z,3.39
2023-02-11T22:31:02.552Z,3.39
2023-02-11T22:33:29.201Z,3.38
2023-02-11T22:36:08.855Z,3.40
2023-02-11T22:38:36.635Z,3.40
2023-02-11T22:41:09.243Z,3.40
2023-02-11T22:43:36.643Z,3.41
2023-02-11T22:46:05.524Z,3.41
2023-02-11T22:48:33.275Z,3.40
2023-02-11T22:51:07.338Z,3.39
2023-02-11T22:53:34.565Z,3.38
2023-02-11T22:56:09.639Z,3.37
2023-02-11T22:58:36.791Z,3.36
2023-02-11T23:01:04.542Z,3.38
2023-02-11T23:03:31.610Z,3.38
2023-02-11T23:05:59.435Z,3.39
2023-02-11T23:08:27.559Z,3.39
2023-02-11T23:10:54.453Z,3.41
2023-02-11T23:13:21.274Z,3.40
2023-02-11T23:15:48.191Z,3.40
2023-02-11T23:18:15.483Z,3.42
2023-02-11T23:20:44.043Z,3.43
2023-02-11T23:23:11.138Z,3.41
2023-02-11T23:25:43.517Z,3.40
2023-02-11T23:28:11.127Z,3.38
2023-02-11T23:30:38.529Z,3.37
2023-02-11T23:33:05.109Z,3.35
2023-02-11T23:35:31.703Z,3.31
2023-02-11T23:37:58.243Z,3.29
2023-02-11T23:40:24.736Z,3.26
2023-02-11T23:42:51.947Z,3.25
2023-02-11T23:45:18.531Z,3.25
2023-02-11T23:47:45.227Z,3.23
2023-02-11T23:50:11.991Z,3.20
2023-02-11T23:52:38.509Z,3.18
2023-02-11T23:55:05.895Z,3.16
2023-02-11T23:57:33.555Z,3.14
